Time;durP1;ratioP1;P1;durP2;ratioP2;P2;SDS_P1;SDS_P2;PMS_P1;PMS_P2;Temp;Humidity;BMP_temperature;BMP_pressure;BME280_temperature;BME280_humidity;BME280_pressure;Samples;Min_cycle;Max_cycle;Signal;HPM_P1;HPM_P2
2021/10/26 00:02:13;;;;;;;;;;;;;;;0.31;79.65;102982.56;1903571;75;20103;-65
2021/10/26 00:04:41;;;;;;;;;;;;;;;0.29;79.62;102980.33;1903416;75;20095;-64
2021/10/26 00:07:09;;;;;;;;;;;;;;;0.28;79.72;102982.47;1903586;75;20119;-64
2021/10/26 00:09:37;;;;;;;;;;;;;;;0.30;79.62;102982.11;1903677;75;20103;-64
2021/10/26 00:12:05;;;;;;;;;;;;;;;0.34;79.44;102980.11;1903471;75;20153;-64
2021/10/26 00:14:33;;;;;;;;;;;;;;;0.38;79.24;102983.28;1903656;75;20173;-64
2021/10/26 00:17:01;;;;;;;;;;;;;;;0.38;79.35;102987.17;1903556;75;20107;-64
2021/10/26 00:19:29;;;;;;;;;;;;;;;0.35;79.39;102983.57;1903525;75;20115;-65
2021/10/26 00:21:57;;;;;;;;;;;;;;;0.34;79.12;102977.52;1903712;75;20424;-64
2021/10/26 00:24:26;;;;;;;;;;;;;;;0.35;78.90;102979.30;1903566;75;20157;-64
2021/10/26 00:26:54;;;;;;;;;;;;;;;0.35;78.76;102978.00;1903533;75;20206;-64
2021/10/26 00:29:22;;;;;;;;;;;;;;;0.36;78.56;102980.17;1903468;75;20139;-64
2021/10/26 00:31:50;;;;;;;;;;;;;;;0.34;78.41;102977.52;1903525;75;20228;-64
2021/10/26 00:34:18;;;;;;;;;;;;;;;0.34;78.28;102981.41;1903531;75;20119;-65
2021/10/26 00:36:46;;;;;;;;;;;;;;;0.33;78.20;102979.66;1903412;75;20115;-64
2021/10/26 00:39:14;;;;;;;;;;;;;;;0.29;78.31;102983.34;1903410;75;20115;-64
2021/10/26 00:41:42;;;;;;;;;;;;;;;0.17;78.68;102979.45;1903517;75;20115;-64
2021/10/26 00:44:10;;;;;;;;;;;;;;;0.09;79.07;102977.37;1903236;75;20197;-65
2021/10/26 00:46:38;;;;;;;;;;;;;;;0.07;79.05;102982.90;1903630;75;20103;-64
2021/10/26 00:49:13;;;;;;;;;;;;;;;0.04;79.21;102986.66;1903562;75;20115;-64
2021/10/26 00:51:38;;;;;;;;;;;;;;;0.02;79.27;102989.59;1903006;75;20377;-64
2021/10/26 00:54:06;;;;;;;;;;;;;;;-0.07;79.23;102996.60;1903350;75;20385;-62
2021/10/26 00:56:36;;;;;;;;;;;;;;;-0.10;79.70;102990.86;1902334;75;20431;-63
2021/10/26 00:59:04;;;;;;;;;;;;;;;-0.05;79.52;102982.88;1903437;75;20115;-63
2021/10/26 01:01:33;;;;;;;;;;;;;;;0.00;79.13;102980.50;1902942;75;20143;-63
2021/10/26 01:04:01;;;;;;;;;;;;;;;0.02;78.92;102974.96;1903436;75;20111;-63
2021/10/26 01:06:30;;;;;;;;;;;;;;;0.04;78.74;102976.29;1903351;75;20150;-63
2021/10/26 01:08:58;;;;;;;;;;;;;;;0.06;78.60;102977.27;1903536;75;20146;-63
2021/10/26 01:11:26;;;;;;;;;;;;;;;0.06;78.82;102977.27;1903508;75;20107;-63
2021/10/26 01:13:55;;;;;;;;;;;;;;;0.00;79.32;102972.72;1903449;75;20129;-63
2021/10/26 01:16:25;;;;;;;;;;;;;;;-0.04;79.56;102970.42;1903574;75;20119;-63
2021/10/26 01:18:53;;;;;;;;;;;;;;;-0.02;79.34;102972.66;1903454;75;20142;-63
2021/10/26 01:21:22;;;;;;;;;;;;;;;0.01;79.02;102968.42;1903678;75;20166;-63
2021/10/26 01:23:50;;;;;;;;;;;;;;;0.00;78.87;102967.55;1903660;75;20192;-63
2021/10/26 01:26:17;;;;;;;;;;;;;;;-0.04;79.22;102969.13;1903708;75;20107;-62
2021/10/26 01:28:46;;;;;;;;;;;;;;;-0.07;79.30;102965.10;1903711;75;20149;-62
2021/10/26 01:31:15;;;;;;;;;;;;;;;-0.15;79.33;102966.90;1903557;75;20119;-62
2021/10/26 01:33:53;;;;;;;;;;;;;;;-0.22;79.56;102975.72;1902693;75;20111;-62
2021/10/26 01:36:23;;;;;;;;;;;;;;;-0.22;79.45;102974.84;1902490;75;20107;-62
2021/10/26 01:38:51;;;;;;;;;;;;;;;-0.21;79.24;102974.01;1903672;75;20119;-62
2021/10/26 01:41:19;;;;;;;;;;;;;;;-0.21;79.24;102972.71;1903641;75;20146;-62
2021/10/26 01:43:53;;;;;;;;;;;;;;;-0.28;79.28;102975.86;1903601;75;20111;-63
2021/10/26 01:46:17;;;;;;;;;;;;;;;-0.33;79.26;102967.02;1903333;75;20142;-63
2021/10/26 01:48:46;;;;;;;;;;;;;;;-0.38;79.18;102968.55;1903654;75;20111;-63
2021/10/26 01:51:15;;;;;;;;;;;;;;;-0.43;79.31;102971.81;1903727;75;20103;-63
2021/10/26 01:53:43;;;;;;;;;;;;;;;-0.46;79.69;102971.70;1903603;75;20150;-63
2021/10/26 01:56:12;;;;;;;;;;;;;;;-0.52;79.56;102967.54;1903193;75;20145;-63
2021/10/26 01:58:42;;;;;;;;;;;;;;;-0.51;79.57;102972.33;1899370;75;20143;-63
2021/10/26 02:01:11;;;;;;;;;;;;;;;-0.52;79.47;102979.19;1902263;75;20111;-64
2021/10/26 02:03:39;;;;;;;;;;;;;;;-0.54;79.32;102982.13;1903602;75;20115;-63
2021/10/26 02:06:08;;;;;;;;;;;;;;;-0.56;79.32;102975.13;1903629;75;20115;-63
2021/10/26 02:08:36;;;;;;;;;;;;;;;-0.54;79.52;102979.53;1903706;75;20158;-63
2021/10/26 02:11:05;;;;;;;;;;;;;;;-0.54;79.62;102978.23;1903526;75;20139;-63
2021/10/26 02:13:34;;;;;;;;;;;;;;;-0.55;79.45;102976.88;1903464;75;20161;-63
2021/10/26 02:16:01;;;;;;;;;;;;;;;-0.60;79.70;102976.27;1903567;75;20150;-63
2021/10/26 02:18:29;;;;;;;;;;;;;;;-0.60;79.87;102984.45;1903727;75;20119;-63
2021/10/26 02:21:00;;;;;;;;;;;;;;;-0.57;79.63;102997.92;1903614;75;20139;-63
2021/10/26 02:23:28;;;;;;;;;;;;;;;-0.54;79.40;102987.72;1903781;75;20420;-64
2021/10/26 02:25:56;;;;;;;;;;;;;;;-0.52;79.21;102993.42;1901142;75;20149;-63
2021/10/26 02:28:24;;;;;;;;;;;;;;;-0.49;79.03;102998.73;1900504;75;20123;-63
2021/10/26 02:30:53;;;;;;;;;;;;;;;-0.48;78.93;103000.52;1900526;75;20116;-63
2021/10/26 02:33:21;;;;;;;;;;;;;;;-0.47;78.83;103002.27;1900473;75;20171;-63
2021/10/26 02:35:49;;;;;;;;;;;;;;;-0.50;78.86;103002.16;1900462;75;20115;-63
2021/10/26 02:38:17;;;;;;;;;;;;;;;-0.58;79.22;103004.81;1900395;75;20146;-63
2021/10/26 02:40:46;;;;;;;;;;;;;;;-0.59;79.13;103000.44;1900544;74;20103;-63
2021/10/26 02:43:14;;;;;;;;;;;;;;;-0.57;79.04;103003.09;1900524;75;20115;-63
2021/10/26 02:45:43;;;;;;;;;;;;;;;-0.55;79.00;103007.93;1900556;75;20111;-63
2021/10/26 02:48:11;;;;;;;;;;;;;;;-0.55;78.89;103001.45;1900450;75;20174;-63
2021/10/26 02:50:39;;;;;;;;;;;;;;;-0.55;78.82;102992.02;1900404;75;20115;-63
2021/10/26 02:53:07;;;;;;;;;;;;;;;-0.55;78.65;102995.90;1900433;75;20150;-63
2021/10/26 02:55:35;;;;;;;;;;;;;;;-0.57;78.61;102987.19;1900573;75;20195;-63
2021/10/26 02:58:03;;;;;;;;;;;;;;;-0.55;78.55;102988.13;1900590;75;20111;-63
2021/10/26 03:00:31;;;;;;;;;;;;;;;-0.56;78.49;102988.06;1900618;75;20155;-63
2021/10/26 03:03:00;;;;;;;;;;;;;;;-0.55;78.48;102984.64;1899844;75;20145;-66
2021/10/26 03:05:29;;;;;;;;;;;;;;;-0.60;78.64;102981.88;1900560;75;20166;-64
2021/10/26 03:07:56;;;;;;;;;;;;;;;-0.66;78.80;102975.15;1900487;75;20625;-64
2021/10/26 03:10:25;;;;;;;;;;;;;;;-0.67;78.93;102981.12;1900523;75;20147;-64
2021/10/26 03:12:53;;;;;;;;;;;;;;;-0.64;78.99;102969.63;1900551;75;20119;-64
2021/10/26 03:15:21;;;;;;;;;;;;;;;-0.64;79.04;102969.20;1900462;75;20107;-63
2021/10/26 03:17:49;;;;;;;;;;;;;;;-0.59;79.08;102970.68;1900379;75;20115;-63
2021/10/26 03:20:20;;;;;;;;;;;;;;;-0.52;79.16;102979.19;1900561;75;20141;-63
2021/10/26 03:22:49;;;;;;;;;;;;;;;-0.39;79.20;102976.70;1900504;75;20115;-63
2021/10/26 03:25:17;;;;;;;;;;;;;;;-0.22;79.13;102976.14;1900284;75;20119;-63
2021/10/26 03:27:45;;;;;;;;;;;;;;;-0.10;79.05;102977.91;1900522;74;20115;-63
2021/10/26 03:30:17;;;;;;;;;;;;;;;0.04;78.87;102977.59;1900374;75;20142;-63
2021/10/26 03:32:45;;;;;;;;;;;;;;;0.18;78.69;102978.64;1900572;75;20342;-63
2021/10/26 03:35:14;;;;;;;;;;;;;;;0.29;78.53;102982.92;1892366;75;20118;-65
2021/10/26 03:37:42;;;;;;;;;;;;;;;0.38;78.36;102974.21;1900412;74;20157;-64
2021/10/26 03:40:11;;;;;;;;;;;;;;;0.47;78.25;102974.11;1900456;75;20115;-64
2021/10/26 03:42:40;;;;;;;;;;;;;;;0.48;78.24;102978.06;1900408;75;20429;-65
2021/10/26 03:45:08;;;;;;;;;;;;;;;0.55;78.08;102977.48;1900592;75;20198;-64
2021/10/26 03:47:39;;;;;;;;;;;;;;;0.62;77.99;102978.58;1900498;75;20166;-64
2021/10/26 03:50:08;;;;;;;;;;;;;;;0.70;77.90;102984.95;1900492;75;20416;-64
2021/10/26 03:52:37;;;;;;;;;;;;;;;0.73;77.76;102985.05;1900447;74;20103;-64
2021/10/26 03:55:05;;;;;;;;;;;;;;;0.78;77.67;102983.06;1900491;75;20116;-64
2021/10/26 03:57:34;;;;;;;;;;;;;;;0.76;77.58;102981.70;1900550;75;20382;-64
2021/10/26 04:00:04;;;;;;;;;;;;;;;0.76;77.55;102982.58;1900442;75;20389;-63
2021/10/26 04:02:39;;;;;;;;;;;;;;;0.79;77.57;102986.11;1899091;75;20152;-63
2021/10/26 04:05:13;;;;;;;;;;;;;;;0.73;77.70;102990.66;1899873;75;20147;-63
2021/10/26 04:07:34;;;;;;;;;;;;;;;0.71;77.87;102988.42;1899022;75;20154;-63
2021/10/26 04:10:06;;;;;;;;;;;;;;;0.69;77.89;102990.95;1900382;75;20487;-63
2021/10/26 04:12:33;;;;;;;;;;;;;;;0.69;77.91;102988.36;1900200;75;20118;-63
2021/10/26 04:15:02;;;;;;;;;;;;;;;0.69;77.89;102996.14;1900252;75;20440;-62
2021/10/26 04:17:31;;;;;;;;;;;;;;;0.71;77.95;102996.20;1900461;75;20483;-62
2021/10/26 04:19:59;;;;;;;;;;;;;;;0.76;77.89;102995.55;1900428;74;20115;-64
2021/10/26 04:22:29;;;;;;;;;;;;;;;0.82;77.88;102997.91;1900261;74;20115;-65
2021/10/26 04:24:57;;;;;;;;;;;;;;;0.85;77.85;103000.59;1900459;75;20119;-63
2021/10/26 04:27:25;;;;;;;;;;;;;;;0.91;77.76;102996.95;1903121;75;20115;-64
2021/10/26 04:29:54;;;;;;;;;;;;;;;0.99;77.64;102997.23;1903572;75;20411;-63
2021/10/26 04:32:22;;;;;;;;;;;;;;;1.08;77.47;102994.55;1903553;75;20146;-63
2021/10/26 04:34:51;;;;;;;;;;;;;;;1.15;77.37;103000.43;1901495;75;20116;-64
2021/10/26 04:37:19;;;;;;;;;;;;;;;1.19;77.28;103000.13;1903793;75;20107;-63
2021/10/26 04:39:47;;;;;;;;;;;;;;;1.25;77.23;102999.04;1903587;75;20115;-63
2021/10/26 04:42:16;;;;;;;;;;;;;;;1.31;77.17;103006.16;1903363;75;20126;-63
2021/10/26 04:44:44;;;;;;;;;;;;;;;1.36;77.17;103009.81;1903661;75;20107;-63
2021/10/26 04:47:15;;;;;;;;;;;;;;;1.42;77.13;103015.63;1903462;75;20385;-63
2021/10/26 04:49:42;;;;;;;;;;;;;;;1.46;77.16;103017.11;1903528;75;20186;-62
2021/10/26 04:52:10;;;;;;;;;;;;;;;1.48;77.24;103018.04;1903822;75;20099;-63
2021/10/26 04:54:38;;;;;;;;;;;;;;;1.50;77.35;103015.08;1903643;75;20142;-63
2021/10/26 04:57:08;;;;;;;;;;;;;;;1.56;77.47;103018.30;1903674;75;20128;-63
2021/10/26 04:59:38;;;;;;;;;;;;;;;1.63;77.54;103016.39;1899685;75;20139;-63
2021/10/26 05:02:06;;;;;;;;;;;;;;;1.72;77.58;103019.30;1903517;75;20103;-63
2021/10/26 05:04:35;;;;;;;;;;;;;;;1.80;77.50;103023.45;1902958;75;20144;-62
2021/10/26 05:07:04;;;;;;;;;;;;;;;1.90;77.42;103025.55;1903622;75;20137;-63
2021/10/26 05:09:32;;;;;;;;;;;;;;;2.00;77.29;103027.15;1903606;75;20119;-62
2021/10/26 05:12:00;;;;;;;;;;;;;;;2.11;77.13;103027.08;1903664;75;20115;-63
2021/10/26 05:14:28;;;;;;;;;;;;;;;2.20;77.02;103015.67;1903470;75;20182;-64
2021/10/26 05:17:19;;;;;;;;;;;;;;;2.31;76.85;103023.40;1903587;75;20137;-63
2021/10/26 05:20:05;;;;;;;;;;;;;;;2.43;76.70;103037.19;1835299;78;20472;-63
2021/10/26 05:22:51;;;;;;;;;;;;;;;2.54;76.58;103038.83;1835416;78;20124;-65
2021/10/26 05:25:34;;;;;;;;;;;;;;;2.61;76.55;103043.39;1816945;75;20190;-64
2021/10/26 05:28:03;;;;;;;;;;;;;;;2.69;76.50;103045.83;1902509;75;20123;-64
2021/10/26 05:30:31;;;;;;;;;;;;;;;2.78;76.36;103041.73;1903702;75;20135;-64
2021/10/26 05:32:59;;;;;;;;;;;;;;;2.85;76.33;103047.58;1903612;75;20115;-64
2021/10/26 05:35:28;;;;;;;;;;;;;;;2.91;76.26;103043.84;1903566;74;20131;-63
2021/10/26 05:37:56;;;;;;;;;;;;;;;2.98;76.19;103041.89;1903625;75;20384;-63
2021/10/26 05:40:24;;;;;;;;;;;;;;;3.06;76.16;103043.41;1903588;75;20153;-63
2021/10/26 05:42:52;;;;;;;;;;;;;;;3.17;76.13;103045.03;1903631;75;20115;-63
2021/10/26 05:45:20;;;;;;;;;;;;;;;3.26;76.07;103040.08;1903785;75;20114;-63
2021/10/26 05:47:50;;;;;;;;;;;;;;;3.36;76.05;103044.72;1903586;75;20146;-63
2021/10/26 05:50:17;;;;;;;;;;;;;;;3.48;76.08;103043.73;1903594;75;20115;-63
2021/10/26 05:52:45;;;;;;;;;;;;;;;3.61;76.31;103042.77;1903648;74;20119;-63
2021/10/26 05:55:13;;;;;;;;;;;;;;;3.71;76.24;103045.20;1903489;75;20197;-62
2021/10/26 05:57:41;;;;;;;;;;;;;;;3.77;76.13;103044.08;1903657;75;20146;-63
2021/10/26 06:00:09;;;;;;;;;;;;;;;3.82;76.13;103051.59;1903599;75;20099;-64
2021/10/26 06:02:40;;;;;;;;;;;;;;;3.78;76.22;103051.94;1903634;75;20151;-63
2021/10/26 06:05:10;;;;;;;;;;;;;;;3.72;76.48;103056.97;1903600;75;20149;-65
2021/10/26 06:07:38;;;;;;;;;;;;;;;3.71;76.40;103060.43;1903627;75;20111;-63
2021/10/26 06:10:07;;;;;;;;;;;;;;;3.65;76.71;103063.76;1903775;75;20119;-63
2021/10/26 06:12:42;;;;;;;;;;;;;;;3.57;76.56;103059.17;1903661;75;20150;-62
2021/10/26 06:15:07;;;;;;;;;;;;;;;3.55;76.72;103065.64;1903993;74;20107;-63
2021/10/26 06:17:35;;;;;;;;;;;;;;;3.54;76.87;103061.68;1903691;75;20119;-61
2021/10/26 06:20:04;;;;;;;;;;;;;;;3.70;76.81;103056.05;1903591;75;20163;-63
2021/10/26 06:22:33;;;;;;;;;;;;;;;3.83;76.68;103055.52;1903590;75;20467;-62
2021/10/26 06:25:00;;;;;;;;;;;;;;;3.91;76.38;103049.63;1903616;75;20115;-63
2021/10/26 06:27:29;;;;;;;;;;;;;;;3.97;76.35;103048.50;1904627;74;20123;-63
2021/10/26 06:29:59;;;;;;;;;;;;;;;3.99;76.23;103047.69;1906765;75;20111;-62
2021/10/26 06:32:31;;;;;;;;;;;;;;;4.02;76.11;103046.86;1903820;75;20405;-62
2021/10/26 06:34:59;;;;;;;;;;;;;;;4.09;76.27;103043.57;1906789;75;20141;-62
2021/10/26 06:37:28;;;;;;;;;;;;;;;4.11;76.32;103037.97;1906778;75;20405;-62
2021/10/26 06:39:57;;;;;;;;;;;;;;;4.11;76.12;103035.36;1906704;75;20111;-63
2021/10/26 06:42:25;;;;;;;;;;;;;;;4.15;76.05;103044.14;1906793;75;20127;-62
2021/10/26 06:45:11;;;;;;;;;;;;;;;4.20;76.02;103053.84;1906716;75;20114;-62
2021/10/26 06:47:53;;;;;;;;;;;;;;;4.25;76.03;103039.19;1902167;75;20202;-62
2021/10/26 06:50:41;;;;;;;;;;;;;;;4.44;76.06;103041.84;1837803;78;20165;-62
2021/10/26 06:53:27;;;;;;;;;;;;;;;4.51;75.89;103041.97;1837969;78;20160;-62
2021/10/26 06:56:03;;;;;;;;;;;;;;;4.52;75.85;103039.80;1871024;75;20144;-63
2021/10/26 06:58:44;;;;;;;;;;;;;;;4.47;75.88;103035.80;1906682;75;20115;-64
2021/10/26 07:01:13;;;;;;;;;;;;;;;4.40;75.93;103033.45;1897319;75;20119;-65
2021/10/26 07:03:49;;;;;;;;;;;;;;;4.37;76.18;103032.10;1906643;75;20155;-64
2021/10/26 07:06:22;;;;;;;;;;;;;;;4.36;76.16;103034.23;1904207;75;20152;-64
2021/10/26 07:09:00;;;;;;;;;;;;;;;4.33;76.26;103038.06;1906581;75;20179;-64
2021/10/26 07:11:33;;;;;;;;;;;;;;;4.34;76.34;103037.67;1906464;75;20202;-63
2021/10/26 07:14:08;;;;;;;;;;;;;;;4.28;76.48;103034.89;1906714;75;20389;-63
2021/10/26 07:16:36;;;;;;;;;;;;;;;4.27;76.48;103033.14;1906673;75;20115;-64
2021/10/26 07:19:06;;;;;;;;;;;;;;;4.28;76.94;103029.67;1906709;75;20431;-62
2021/10/26 07:21:52;;;;;;;;;;;;;;;4.31;76.79;103025.84;1906698;75;20149;-62
2021/10/26 07:24:25;;;;;;;;;;;;;;;4.37;76.97;103028.59;1902226;75;20143;-63
2021/10/26 07:26:55;;;;;;;;;;;;;;;4.40;77.14;103028.23;1906073;75;20445;-63
2021/10/26 07:29:23;;;;;;;;;;;;;;;4.45;77.09;103028.36;1909198;75;20161;-63
2021/10/26 07:31:51;;;;;;;;;;;;;;;4.52;77.03;103018.92;1909527;75;20126;-63
2021/10/26 07:34:20;;;;;;;;;;;;;;;4.65;77.19;103018.38;1909507;75;20107;-64
2021/10/26 07:36:49;;;;;;;;;;;;;;;4.70;77.20;103018.03;1909537;75;20396;-63
2021/10/26 07:39:45;;;;;;;;;;;;;;;4.74;77.05;103017.67;1909762;75;20102;-63
2021/10/26 07:41:50;;;;;;;;;;;;;;;4.75;77.26;103019.45;1905439;75;20119;-63
2021/10/26 07:44:20;;;;;;;;;;;;;;;4.73;76.90;103015.93;1890241;75;20102;-63
2021/10/26 07:46:53;;;;;;;;;;;;;;;4.77;76.91;103013.84;1908295;75;20147;-63
2021/10/26 07:49:22;;;;;;;;;;;;;;;4.78;76.92;103012.57;1909282;75;20139;-63
2021/10/26 07:51:51;;;;;;;;;;;;;;;4.89;76.94;103002.77;1909623;75;20118;-63
2021/10/26 07:54:19;;;;;;;;;;;;;;;5.11;76.84;103005.39;1909442;75;20115;-63
2021/10/26 07:56:47;;;;;;;;;;;;;;;5.25;77.00;103010.46;1909328;75;20103;-63
2021/10/26 07:59:15;;;;;;;;;;;;;;;5.38;76.83;103007.66;1909347;75;20127;-64
2021/10/26 08:01:46;;;;;;;;;;;;;;;5.44;76.48;103007.80;1909464;75;20174;-63
2021/10/26 08:04:31;;;;;;;;;;;;;;;5.46;76.42;103011.72;1909564;75;20107;-63
2021/10/26 08:07:10;;;;;;;;;;;;;;;5.53;76.38;103009.67;1908431;75;20151;-64
2021/10/26 08:09:38;;;;;;;;;;;;;;;5.66;76.27;103014.27;1909379;75;20103;-63
2021/10/26 08:12:07;;;;;;;;;;;;;;;5.74;75.89;103015.30;1909547;75;20114;-63
2021/10/26 08:14:35;;;;;;;;;;;;;;;5.90;75.66;103018.16;1909541;75;20107;-63
2021/10/26 08:17:04;;;;;;;;;;;;;;;6.04;75.33;103015.83;1909515;75;20119;-62
2021/10/26 08:19:32;;;;;;;;;;;;;;;6.35;74.80;103009.34;1909636;75;20115;-63
2021/10/26 08:22:01;;;;;;;;;;;;;;;6.56;74.09;103003.08;1909460;75;20141;-64
2021/10/26 08:24:32;;;;;;;;;;;;;;;7.43;71.80;103004.12;1937277;74;20123;-63
2021/10/26 08:27:01;;;;;;;;;;;;;;;8.17;69.45;102996.48;1909628;75;20123;-63
2021/10/26 08:35:18;;;;;;;;;;;;;;;11.33;60.05;102983.52;1903608;75;20159;-63
2021/10/26 08:37:33;;;;;;;;;;;;;;;11.51;58.74;102976.80;1900856;75;20200;-63
2021/10/26 08:40:03;;;;;;;;;;;;;;;11.52;58.34;102976.34;1903067;74;20114;-63
2021/10/26 08:42:31;;;;;;;;;;;;;;;11.73;58.58;102970.02;1903425;75;20150;-63
2021/10/26 08:45:00;;;;;;;;;;;;;;;11.35;59.88;102968.56;1903358;75;20111;-63
2021/10/26 08:47:30;;;;;;;;;;;;;;;11.08;60.93;102966.51;1903596;75;20103;-63
2021/10/26 08:50:00;;;;;;;;;;;;;;;11.98;59.13;102961.48;1898986;75;20381;-63
2021/10/26 08:52:30;;;;;;;;;;;;;;;12.93;56.82;102960.86;1902428;75;20122;-63
2021/10/26 08:54:59;;;;;;;;;;;;;;;14.07;56.09;102951.11;1901126;75;20145;-63
2021/10/26 08:57:46;;;;;;;;;;;;;;;14.60;53.17;102948.36;1903493;75;20123;-64
2021/10/26 09:00:17;;;;;;;;;;;;;;;15.40;51.24;102942.14;1897437;75;20107;-63
2021/10/26 09:02:46;;;;;;;;;;;;;;;15.55;48.34;102935.58;1903528;75;20151;-64
2021/10/26 09:05:16;;;;;;;;;;;;;;;15.84;48.58;102935.30;1903693;74;20111;-64
2021/10/26 09:08:01;;;;;;;;;;;;;;;16.60;47.92;102934.97;1903524;75;20162;-63
2021/10/26 09:10:34;;;;;;;;;;;;;;;15.83;48.64;102930.45;1903489;74;20095;-64
2021/10/26 09:19:29;;;;;;;;;;;;;;;13.61;50.22;102929.42;1903519;75;20151;-63
2021/10/26 09:21:59;;;;;;;;;;;;;;;14.55;49.08;102921.92;1904178;74;20099;-64
2021/10/26 09:24:28;;;;;;;;;;;;;;;15.26;46.15;102909.75;1903444;74;20146;-64
2021/10/26 09:26:58;;;;;;;;;;;;;;;15.41;45.57;102909.36;1903240;75;20169;-64
2021/10/26 09:29:30;;;;;;;;;;;;;;;15.56;45.74;102899.27;1903367;74;20127;-64
2021/10/26 09:32:08;;;;;;;;;;;;;;;15.75;44.77;102895.27;1903599;75;20361;-63
2021/10/26 09:34:44;;;;;;;;;;;;;;;15.64;44.92;102894.65;1903674;75;20381;-64
2021/10/26 09:37:12;;;;;;;;;;;;;;;15.94;43.87;102895.64;1903802;74;20119;-64
2021/10/26 09:39:40;;;;;;;;;;;;;;;16.05;43.78;102883.39;1903712;75;20119;-64
2021/10/26 09:42:09;;;;;;;;;;;;;;;16.10;43.86;102889.45;1903633;75;20115;-64
2021/10/26 09:44:39;;;;;;;;;;;;;;;16.00;42.80;102879.52;1903602;75;20119;-64
2021/10/26 09:47:08;;;;;;;;;;;;;;;15.80;43.38;102885.37;1903801;75;20119;-64
2021/10/26 09:49:37;;;;;;;;;;;;;;;15.69;43.50;102874.13;1903564;75;20119;-64
2021/10/26 09:52:19;;;;;;;;;;;;;;;15.71;43.81;102868.78;1903688;75;20353;-64
2021/10/26 09:54:49;;;;;;;;;;;;;;;15.74;43.70;102866.95;1903626;75;20143;-64
2021/10/26 09:57:18;;;;;;;;;;;;;;;15.73;42.92;102863.86;1903523;75;20115;-64
2021/10/26 09:59:53;;;;;;;;;;;;;;;15.79;44.06;102864.19;1903585;75;20119;-64
2021/10/26 10:02:24;;;;;;;;;;;;;;;16.15;43.97;102866.25;1903542;75;20127;-64
2021/10/26 10:04:54;;;;;;;;;;;;;;;16.17;43.68;102864.88;1903628;75;20119;-64
2021/10/26 10:07:32;;;;;;;;;;;;;;;16.10;42.98;102856.23;1903630;75;20392;-64
2021/10/26 10:10:04;;;;;;;;;;;;;;;16.04;44.12;102855.05;1903775;75;20377;-65
2021/10/26 10:12:31;;;;;;;;;;;;;;;16.36;43.92;102855.94;1903595;74;20147;-65
2021/10/26 10:14:59;;;;;;;;;;;;;;;16.47;43.27;102846.28;1903449;75;20166;-64
2021/10/26 10:17:27;;;;;;;;;;;;;;;16.70;43.42;102850.91;1903596;75;20145;-64
2021/10/26 10:19:55;;;;;;;;;;;;;;;16.55;42.68;102839.81;1903579;75;20119;-64
2021/10/26 10:22:25;;;;;;;;;;;;;;;16.67;42.26;102839.88;1903578;75;20119;-64
2021/10/26 10:24:54;;;;;;;;;;;;;;;16.65;42.52;102835.54;1903567;75;20107;-64
2021/10/26 10:27:23;;;;;;;;;;;;;;;16.77;41.95;102848.00;1903720;74;20201;-64
2021/10/26 10:29:51;;;;;;;;;;;;;;;16.60;42.17;102836.56;1902524;75;20123;-64
2021/10/26 10:32:20;;;;;;;;;;;;;;;16.55;41.43;102836.30;1900462;75;20142;-64
2021/10/26 10:34:48;;;;;;;;;;;;;;;16.52;40.29;102828.40;1900489;75;20115;-64
2021/10/26 10:37:17;;;;;;;;;;;;;;;16.13;41.42;102824.23;1900465;75;20104;-64
2021/10/26 10:39:45;;;;;;;;;;;;;;;16.28;40.29;102828.69;1900592;74;20123;-64
2021/10/26 10:42:26;;;;;;;;;;;;;;;16.11;41.15;102816.77;1900466;75;20103;-63
2021/10/26 10:44:52;;;;;;;;;;;;;;;15.87;41.21;102813.50;1899345;75;20149;-63
2021/10/26 10:47:37;;;;;;;;;;;;;;;15.84;41.97;102809.13;1900463;75;20385;-64
2021/10/26 10:50:06;;;;;;;;;;;;;;;15.78;41.36;102808.84;1900416;74;20409;-64
2021/10/26 10:52:34;;;;;;;;;;;;;;;15.62;41.18;102795.11;1903795;74;20103;-65
2021/10/26 10:55:04;;;;;;;;;;;;;;;15.40;41.16;102796.14;1900483;75;20146;-63
2021/10/26 10:57:41;;;;;;;;;;;;;;;15.31;41.42;102796.38;1903540;74;20145;-64
2021/10/26 11:00:15;;;;;;;;;;;;;;;15.14;41.47;102792.84;1900561;75;20115;-63
2021/10/26 11:02:44;;;;;;;;;;;;;;;15.01;41.91;102793.61;1900673;74;20116;-64
2021/10/26 11:05:31;;;;;;;;;;;;;;;15.06;42.43;102785.52;1900545;75;20115;-63
2021/10/26 11:08:00;;;;;;;;;;;;;;;15.12;42.14;102777.86;1900540;75;20120;-63
2021/10/26 11:10:30;;;;;;;;;;;;;;;15.08;42.12;102775.73;1900589;75;20114;-64
2021/10/26 11:12:59;;;;;;;;;;;;;;;14.80;40.91;102769.79;1904311;73;20103;-64
2021/10/26 11:15:45;;;;;;;;;;;;;;;14.51;40.85;102770.91;1903743;74;20115;-64
2021/10/26 11:18:31;;;;;;;;;;;;;;;14.31;41.35;102767.38;1900480;74;20111;-63
2021/10/26 11:20:59;;;;;;;;;;;;;;;14.17;42.04;102769.03;1900482;74;20115;-64
2021/10/26 11:23:41;;;;;;;;;;;;;;;14.05;43.02;102767.50;1900396;75;20107;-63
2021/10/26 11:26:11;;;;;;;;;;;;;;;14.06;43.88;102766.61;1900453;75;20095;-63
2021/10/26 11:28:40;;;;;;;;;;;;;;;13.95;44.53;102763.32;1900594;75;20420;-63
2021/10/26 11:31:10;;;;;;;;;;;;;;;14.05;44.94;102755.15;1902321;75;20460;-63
2021/10/26 11:33:41;;;;;;;;;;;;;;;14.09;45.16;102763.88;1903592;74;20115;-63
2021/10/26 11:36:09;;;;;;;;;;;;;;;14.13;45.60;102755.41;1903408;75;20127;-63
2021/10/26 11:38:46;;;;;;;;;;;;;;;14.08;45.66;102756.85;1903661;75;20186;-63
2021/10/26 11:41:15;;;;;;;;;;;;;;;13.85;46.33;102750.70;1903530;75;20123;-63
2021/10/26 11:43:58;;;;;;;;;;;;;;;13.45;46.80;102756.34;1904187;74;20164;-63
2021/10/26 11:46:28;;;;;;;;;;;;;;;12.86;47.95;102751.64;1903415;75;20415;-64
2021/10/26 11:49:07;;;;;;;;;;;;;;;12.32;48.52;102750.70;1903540;75;20142;-64
2021/10/26 11:51:42;;;;;;;;;;;;;;;11.89;49.04;102745.94;1903293;75;20131;-63
2021/10/26 11:54:16;;;;;;;;;;;;;;;11.62;48.11;102755.50;1903588;75;20111;-63
2021/10/26 11:56:52;;;;;;;;;;;;;;;11.31;48.65;102755.84;1903419;74;20441;-64
2021/10/26 11:59:26;;;;;;;;;;;;;;;11.14;49.52;102752.92;1903190;75;20114;-63
2021/10/26 12:01:59;;;;;;;;;;;;;;;10.98;50.54;102755.27;1901331;75;20122;-63
2021/10/26 12:04:31;;;;;;;;;;;;;;;10.79;50.78;102747.50;1903438;75;20119;-64
2021/10/26 12:07:00;;;;;;;;;;;;;;;10.74;50.71;102749.30;1903529;75;20123;-63
2021/10/26 12:09:30;;;;;;;;;;;;;;;10.68;50.05;102746.72;1903305;75;20362;-63
2021/10/26 12:11:59;;;;;;;;;;;;;;;10.65;50.11;102743.23;1903579;74;20107;-63
2021/10/26 12:14:35;;;;;;;;;;;;;;;10.60;50.38;102739.30;1903525;75;20423;-63
2021/10/26 12:17:07;;;;;;;;;;;;;;;10.58;50.67;102734.03;1903464;75;20115;-63
2021/10/26 12:19:36;;;;;;;;;;;;;;;10.59;50.65;102733.61;1903396;75;20158;-64
2021/10/26 12:22:04;;;;;;;;;;;;;;;10.52;50.43;102738.03;1903184;75;20222;-62
2021/10/26 12:24:34;;;;;;;;;;;;;;;10.46;50.23;102742.45;1903688;75;20153;-62
2021/10/26 12:27:08;;;;;;;;;;;;;;;10.42;50.64;102737.65;1903489;75;20374;-62
2021/10/26 12:29:34;;;;;;;;;;;;;;;10.41;50.67;102738.10;1903012;75;20578;-62
2021/10/26 12:32:04;;;;;;;;;;;;;;;10.41;50.41;102740.73;1903545;74;20107;-63
2021/10/26 12:34:35;;;;;;;;;;;;;;;10.38;50.14;102742.09;1903427;75;20123;-63
2021/10/26 12:37:21;;;;;;;;;;;;;;;10.32;50.12;102734.21;1903631;75;20408;-63
2021/10/26 12:39:54;;;;;;;;;;;;;;;10.30;50.71;102737.27;1903129;74;20119;-63
2021/10/26 12:42:36;;;;;;;;;;;;;;;10.25;50.40;102741.67;1903650;75;20378;-63
2021/10/26 12:45:06;;;;;;;;;;;;;;;10.23;50.10;102738.18;1903494;74;20111;-63
2021/10/26 12:47:53;;;;;;;;;;;;;;;10.18;50.29;102735.59;1903484;75;20150;-63
2021/10/26 12:50:26;;;;;;;;;;;;;;;10.16;50.31;102747.89;1903624;75;20107;-63
2021/10/26 12:53:11;;;;;;;;;;;;;;;10.17;49.69;102744.80;1903841;74;20136;-63
2021/10/26 12:55:59;;;;;;;;;;;;;;;10.11;49.59;102739.58;1879311;76;20112;-63
2021/10/26 12:58:32;;;;;;;;;;;;;;;10.10;49.43;102741.77;1882576;76;20395;-64
2021/10/26 13:01:00;;;;;;;;;;;;;;;10.08;49.37;102734.33;1874216;76;20117;-63
2021/10/26 13:03:28;;;;;;;;;;;;;;;10.03;49.02;102736.55;1874665;77;20109;-64
2021/10/26 13:05:57;;;;;;;;;;;;;;;9.98;49.09;102729.11;1874680;77;20164;-64
2021/10/26 13:08:25;;;;;;;;;;;;;;;9.92;49.09;102727.80;1874742;77;20387;-62
2021/10/26 13:10:53;;;;;;;;;;;;;;;9.90;49.14;102724.30;1874771;77;20125;-64